x

Sabine Pass, Tx (srst2) Weather Station

10:00pm - Fri 25th Jul 2014 All times are CDT. -5 hours from GMT.

  • Wind
    9mph, 14mph gusts
  • Air Temp 84°f
  • Sea Pressure 1016.5mb
  • Sabine Pass, Tx
  • Sabine Pass, Tx

More Historic Weather Station data

Upgrade to MSW Pro to gain access to the past 30 days of data for over 8000 Wavebouys and Weather Stations around the globe.

Join Pro

Comparision Forecast

View Surf forecast
   
Fri 07/25 10:00pm 9 14 mph 1016.5mb 84f
9:00pm 11 13 mph 1016.2mb 84f
8:00pm 11 15 mph 1016mb 84f
7:00pm 13 16 mph 1015.5mb 85f
6:00pm 11 14 mph 1015.2mb 85f
5:00pm 13 15 mph 1015.4mb 86f
4:00pm 15 17 mph 1015.7mb 86f
3:00pm 9 10 mph 1016.2mb 86f
2:00pm 9 10 mph 1016.7mb 85f
1:00pm 8 9 mph 1017.1mb 85f
12:00pm 7 11 mph 1017.7mb 84f
11:00am 6 8 mph 1017.9mb 83f
10:00am 8 10 mph 1018.2mb 81f
9:00am 6 7 mph 1018.3mb 76f
8:00am 11 14 mph 1018.1mb 74f
7:00am 8 9 mph 1017.1mb 78f
6:00am 2 3 mph 1016mb 78f
5:00am 16 20 mph 1016mb 78f
4:00am 3
mph
1015.7mb 81f
3:00am 2
mph
1016.1mb 81f
2:00am 5
mph
1016.3mb 82f
1:00am 5
mph
1016.4mb 81f
12:00am 5 6 mph 1016.1mb 81f
Thu 07/24 11:00pm 3 5 mph 1016mb 82f
10:00pm 7 9 mph 1015.4mb 83f
9:00pm 9 10 mph 1015mb 83f
8:00pm 9 10 mph 1014.4mb 84f
7:00pm 10 13 mph 1013.8mb 84f
6:00pm 10 13 mph 1014.2mb 85f
5:00pm 6 7 mph 1014.2mb 85f
4:00pm 7 8 mph 1015.1mb 84f
3:00pm 11 14 mph 1016mb 83f
2:00pm 11 13 mph 1016.7mb 84f
1:00pm 5 7 mph 1017mb 85f
12:00pm 5 6 mph 1016.8mb 83f
11:00am 8 10 mph 1016.8mb 80f
10:00am 10 13 mph 1017.2mb 78f
9:00am 13 14 mph 1017.2mb 76f
8:00am 9 10 mph 1017mb 75f
7:00am 6 8 mph 1016.4mb 74f
6:00am 9 10 mph 1015.5mb 74f
5:00am 5 7 mph 1014.9mb 80f
4:00am 2
mph
1014.4mb 76f
3:00am 3
mph
1014.9mb 76f
2:00am 5
mph
1016mb 76f
1:00am 10 13 mph 1016mb 77f
12:00am 7 8 mph 1016.3mb 75f
Wed 07/23 11:00pm 16 20 mph 1017.1mb 76f
10:00pm 7
mph
1016.2mb 82f
9:00pm 6 7 mph 1016.3mb 82f
8:00pm 6
mph
1015.3mb 84f
7:00pm 7 8 mph 1015mb 85f
6:00pm 9 11 mph 1014.4mb 85f
5:00pm 7 9 mph 1015mb 86f
4:00pm 9 10 mph 1016.1mb 86f
3:00pm 9 11 mph 1017mb 86f
2:00pm 9 10 mph 1017.3mb 86f
1:00pm 8 9 mph 1018.1mb 85f
12:00pm 5 6 mph 1017.9mb 88f
11:00am 7 10 mph 1017.8mb 86f
10:00am 7 8 mph 1018.2mb 84f
9:00am 6 7 mph 1018.2mb 80f
8:00am 7 8 mph 1018.2mb 79f
7:00am 7 8 mph 1017.4mb 79f
6:00am 6
mph
1017.4mb 78f
5:00am 5
mph
1016.6mb 79f
4:00am 6 7 mph 1016.5mb 80f
3:00am 2
mph
1016.7mb 80f
2:00am 5
mph
1016.9mb 81f
1:00am 3 5 mph 1017mb 81f
12:00am 2
mph
1017.2mb 81f
Tue 07/22 11:00pm 2
mph
1017mb 81f
10:00pm 3 5 mph 1016.8mb 82f
9:00pm 5
mph
1016.5mb 82f
8:00pm 5
mph
1016.2mb 82f
7:00pm 3 5 mph 1015.9mb 83f
6:00pm 6 9 mph 1015.9mb 83f
5:00pm 3 5 mph 1016.1mb 80f
4:00pm 9 14 mph 1016.2mb 82f
3:00pm 16 20 mph 1016.2mb 87f
2:00pm 3 6 mph 1017.1mb 89f
1:00pm 9 11 mph 1017.3mb 87f
12:00pm 7 11 mph 1017.5mb 87f
11:00am 9 13 mph 1018mb 85f
10:00am 9 11 mph 1018.1mb 84f
9:00am 7 8 mph 1018.2mb 82f
8:00am 2 3 mph 1017.7mb 80f
7:00am 5 6 mph 1017mb 79f
6:00am 5 6 mph 1016.6mb 80f
5:00am 6
mph
1016.4mb 80f